LFOJ 210400Z AUTO 36009KT CAVOK 01/M00 Q1035

ElémentsDécodage
LFOJ Station météo située sur l'aérodrome de ORLEANS Bricy
210400Z émis le 21 du mois à 04h00 UTC
AUTO Bulletin édité par un automate
36009KT vent du 360°, 09 noeuds
CAVOK Ceiling And Visibility OK
- Visibilité de 10 Km ou plus
- Pas de nuage au-dessous de 1500m ou au-dessous de l'altitude minimale du secteur la plus élevée (si>1500m) et absence de CB
- pas de temps présent significatif
01/M00 température 01°C, point de rosée 00°C
 soit une humidité relative de 93%
Q1035 la pression au niveau de la mer (QNH) est de 1035 hPa